Time;durP1;ratioP1;P1;durP2;ratioP2;P2;SDS_P1;SDS_P2;PMS_P1;PMS_P2;Temp;Humidity;BMP_temperature;BMP_pressure;BME280_temperature;BME280_humidity;BME280_pressure;Samples;Min_cycle;Max_cycle;Signal;HPM_P1;HPM_P2
2023/05/24 00:02:19;;;;;;;;;2.67;2.67;;;;;12.27;68.94;102205.25;5057438;28;45916;-79
2023/05/24 00:04:48;;;;;;;;;5.67;4.00;;;;;11.87;69.04;102142.88;5059570;28;45610;-78
2023/05/24 00:07:24;;;;;;;;;4.33;2.00;;;;;12.20;69.25;102201.06;5057773;28;45384;-79
2023/05/24 00:09:58;;;;;;;;;2.00;2.00;;;;;12.15;70.55;102200.31;5060577;28;45580;-79
2023/05/24 00:12:44;;;;;;;;;2.00;2.00;;;;;12.17;69.57;102214.41;5056439;28;45445;-79
2023/05/24 00:18:08;;;;;;;;;9.00;4.67;;;;;11.74;70.54;102149.47;5053027;28;45482;-79
2023/05/24 00:20:43;;;;;;;;;4.33;2.33;;;;;11.82;71.01;102157.16;5054591;28;45560;-77
2023/05/24 00:23:15;;;;;;;;;3.00;2.00;;;;;12.28;71.23;102260.91;5057496;28;45444;-77
2023/05/24 00:25:45;;;;;;;;;3.33;3.00;;;;;11.82;71.53;102162.47;5053031;28;45537;-78
2023/05/24 00:28:38;;;;;;;;;3.00;3.00;;;;;11.89;70.87;102177.28;5056938;28;45431;-77
2023/05/24 00:31:45;;;;;;;;;4.33;4.00;;;;;11.93;71.98;102202.78;5046452;28;45233;-78
2023/05/24 00:34:27;;;;;;;;;5.67;4.00;;;;;11.78;72.34;102188.19;5057114;28;45309;-78
2023/05/24 00:36:57;;;;;;;;;3.00;2.67;;;;;11.48;71.55;102131.63;5071343;28;47241;-78
2023/05/24 00:39:27;;;;;;;;;2.00;2.00;;;;;11.80;73.13;102170.47;5055638;28;45463;-78
2023/05/24 00:41:59;;;;;;;;;8.33;5.00;;;;;11.47;72.51;102134.34;5057437;28;45573;-78
2023/05/24 00:44:30;;;;;;;;;3.67;2.33;;;;;11.54;73.92;102132.38;5058203;28;45424;-79
2023/05/24 00:47:15;;;;;;;;;4.00;3.00;;;;;11.79;73.80;102176.69;5057403;28;46577;-79
2023/05/24 00:49:54;;;;;;;;;5.00;4.00;;;;;11.82;73.92;102173.94;5053536;28;45385;-79
2023/05/24 00:52:32;;;;;;;;;3.33;1.67;;;;;11.77;73.86;102180.31;5055820;28;45575;-79
2023/05/24 00:55:06;;;;;;;;;4.00;2.33;;;;;11.71;73.75;102177.84;5058303;28;45453;-79
2023/05/24 01:01:06;;;;;;;;;9.67;4.33;;;;;11.82;74.27;102210.19;5057148;28;45488;-79
2023/05/24 01:03:42;;;;;;;;;9.33;4.33;;;;;11.93;74.75;102222.22;5042650;28;45535;-79
2023/05/24 01:06:14;;;;;;;;;5.00;4.00;;;;;11.44;75.78;102147.69;5056419;28;45425;-79
2023/05/24 01:08:59;;;;;;;;;4.00;4.00;;;;;11.87;75.10;102208.28;5056412;28;45714;-79
2023/05/24 01:12:03;;;;;;;;;6.67;4.00;;;;;11.86;74.51;102209.19;5057038;28;45463;-79
2023/05/24 01:15:03;;;;;;;;;3.00;3.00;;;;;11.31;74.95;102131.28;5055288;28;45675;-78
2023/05/24 01:17:58;;;;;;;;;;;;;;;;;;;;;
2023/05/24 01:20:36;;;;;;;;;4.00;4.00;;;;;11.69;75.47;102214.94;5042737;28;73973;-78
2023/05/24 01:23:27;;;;;;;;;3.00;3.00;;;;;11.81;77.32;102227.00;5068519;28;45574;-78
2023/05/24 01:26:39;;;;;;;;;9.00;5.00;;;;;11.78;76.33;102227.09;5050650;28;45531;-78
2023/05/24 01:29:23;;;;;;;;;3.33;3.33;;;;;11.56;75.86;102189.72;5048769;28;45581;-78
2023/05/24 01:32:20;;;;;;;;;9.67;3.67;;;;;11.75;76.36;102219.22;5061469;28;45757;-78
2023/05/24 01:35:00;;;;;;;;;6.67;2.00;;;;;11.72;76.23;102236.09;5027956;28;45561;-78
2023/05/24 01:37:36;;;;;;;;;11.33;4.33;;;;;11.29;76.05;102162.22;5057019;28;45275;-78
2023/05/24 01:40:03;;;;;;;;;9.67;3.00;;;;;11.29;76.74;102150.75;5058940;28;45264;-78
2023/05/24 01:42:58;;;;;;;;;4.00;4.00;;;;;11.66;76.04;102235.34;5058644;28;45500;-78
2023/05/24 01:45:46;;;;;;;;;4.00;3.33;;;;;11.62;77.84;102226.63;5059182;28;45471;-78
2023/05/24 01:48:34;;;;;;;;;7.33;4.00;;;;;11.63;76.95;102228.38;5057190;28;45571;-78
2023/05/24 01:51:11;;;;;;;;;3.67;2.67;;;;;11.60;78.58;102246.13;5046522;28;46220;-78
2023/05/24 01:54:05;;;;;;;;;6.00;3.00;;;;;11.06;76.87;102164.66;5056169;28;46164;-77
2023/05/24 01:56:59;;;;;;;;;7.33;5.00;;;;;10.99;78.49;102152.50;5047727;28;45738;-78
2023/05/24 01:59:38;;;;;;;;;4.33;4.00;;;;;11.24;77.64;102192.41;5053040;28;45261;-77
2023/05/24 02:02:04;;;;;;;;;5.00;3.67;;;;;11.23;77.35;102180.06;5053364;28;45494;-77
2023/05/24 02:04:38;;;;;;;;;9.67;7.67;;;;;10.93;77.61;102153.53;5055697;28;45518;-78
2023/05/24 02:07:08;;;;;;;;;9.67;8.67;;;;;10.99;78.66;102173.69;5051751;28;46428;-79
2023/05/24 02:09:36;;;;;;;;;6.67;4.67;;;;;11.41;78.83;102241.38;5049619;28;46864;-79
2023/05/24 02:12:02;;;;;;;;;10.00;4.67;;;;;10.93;78.40;102155.28;5054920;28;45560;-79
2023/05/24 02:14:37;;;;;;;;;3.67;3.67;;;;;10.91;78.79;102165.94;5055519;28;45598;-78
2023/05/24 02:17:04;;;;;;;;;7.00;7.00;;;;;10.81;78.70;102158.28;5043531;28;45414;-78
2023/05/24 02:19:39;;;;;;;;;11.00;5.00;;;;;10.90;79.29;102166.84;5057098;28;45512;-78
2023/05/24 02:22:06;;;;;;;;;10.00;5.00;;;;;10.81;79.52;102177.69;5054934;28;45567;-78
2023/05/24 02:24:39;;;;;;;;;4.00;4.00;;;;;11.13;79.91;102219.16;5059158;28;45670;-81
2023/05/24 02:27:06;;;;;;;;;5.00;4.00;;;;;10.86;79.90;102167.81;5055756;28;45546;-78
2023/05/24 02:29:46;;;;;;;;;5.00;5.00;;;;;11.22;79.29;102242.75;5055909;28;45524;-78
2023/05/24 02:32:32;;;;;;;;;6.00;6.00;;;;;11.04;80.20;102215.91;5064601;28;45658;-78
2023/05/24 02:35:09;;;;;;;;;4.00;4.00;;;;;10.84;80.30;102184.66;5068367;28;46226;-78
2023/05/24 02:37:44;;;;;;;;;5.67;5.00;;;;;10.48;80.80;102122.97;5053734;28;45672;-77
2023/05/24 02:40:13;;;;;;;;;5.00;3.00;;;;;10.75;81.05;102169.91;5052057;28;45533;-78
2023/05/24 02:42:56;;;;;;;;;13.33;5.33;;;;;10.92;81.00;102209.16;5073640;28;45494;-77
2023/05/24 02:45:27;;;;;;;;;9.00;5.00;;;;;10.67;81.17;102171.88;5073401;28;45709;-78
2023/05/24 02:47:53;;;;;;;;;6.33;3.00;;;;;10.60;81.56;102149.13;5052346;28;45295;-78
2023/05/24 02:53:31;;;;;;;;;7.00;4.00;;;;;10.54;81.27;102128.13;5052994;28;45225;-80
2023/05/24 02:56:07;;;;;;;;;8.67;4.00;;;;;10.74;81.20;102157.56;5056269;28;45579;-79
2023/05/24 02:58:48;;;;;;;;;4.67;4.67;;;;;10.29;82.01;102096.16;5058049;28;45529;-80
2023/05/24 03:01:25;;;;;;;;;4.33;4.33;;;;;10.28;82.50;102112.03;5073888;28;45478;-80
2023/05/24 03:04:06;;;;;;;;;5.00;3.67;;;;;10.32;82.17;102127.81;5059735;28;45713;-79
2023/05/24 03:06:45;;;;;;;;;10.33;4.00;;;;;10.37;83.03;102131.19;5058093;28;47923;-80
2023/05/24 03:09:18;;;;;;;;;4.00;4.00;;;;;10.40;83.28;102128.47;5057662;28;45343;-80
2023/05/24 03:11:47;;;;;;;;;8.33;4.33;;;;;10.30;83.81;102123.47;5074991;28;46482;-80
2023/05/24 03:14:21;;;;;;;;;4.00;4.00;;;;;10.68;83.10;102192.13;5059563;28;45234;-79
2023/05/24 03:17:07;;;;;;;;;3.67;3.00;;;;;10.35;84.84;102121.56;5058474;28;45576;-79
2023/05/24 03:19:55;;;;;;;;;5.00;5.00;;;;;10.27;83.96;102111.19;5058389;28;45564;-79
2023/05/24 03:22:21;;;;;;;;;4.33;3.00;;;;;10.59;83.43;102181.78;5060196;28;45349;-79
2023/05/24 03:24:48;;;;;;;;;5.00;4.00;;;;;10.64;83.75;102171.06;5054871;28;45528;-79
2023/05/24 03:27:41;;;;;;;;;3.67;3.67;;;;;10.35;83.03;102142.72;5073993;28;45439;-79
2023/05/24 03:30:19;;;;;;;;;10.00;5.00;;;;;10.37;83.87;102117.13;5049554;28;45600;-79
2023/05/24 03:33:03;;;;;;;;;5.00;4.00;;;;;10.39;84.40;102136.44;5049327;28;45581;-79
2023/05/24 03:35:59;;;;;;;;;8.67;5.00;;;;;10.52;83.80;102142.28;5057010;28;45333;-79
2023/05/24 03:39:02;;;;;;;;;;;;;;;;;;;;;
2023/05/24 03:41:42;;;;;;;;;5.00;4.33;;;;;10.51;83.26;102164.34;5046531;28;71898;-79
2023/05/24 03:44:18;;;;;;;;;8.00;5.00;;;;;10.73;84.70;102182.28;5058921;28;45269;-79
2023/05/24 03:46:49;;;;;;;;;4.33;4.33;;;;;10.36;83.20;102139.19;5058367;28;45383;-78
2023/05/24 03:49:18;;;;;;;;;8.00;5.67;;;;;10.81;83.39;102205.91;5058993;28;45470;-79
2023/05/24 03:51:56;;;;;;;;;8.33;5.00;;;;;10.81;83.42;102222.66;5055902;28;45426;-79
2023/05/24 03:54:27;;;;;;;;;7.00;7.00;;;;;10.47;83.73;102160.91;5056872;28;45434;-79
2023/05/24 03:57:00;;;;;;;;;5.00;4.33;;;;;10.55;83.52;102188.06;5057568;28;45824;-79
2023/05/24 03:59:40;;;;;;;;;6.00;4.33;;;;;10.28;83.41;102141.13;5055275;28;46065;-79
2023/05/24 04:02:06;;;;;;;;;8.33;6.67;;;;;10.42;84.47;102154.88;5059652;28;45441;-79
2023/05/24 04:04:37;;;;;;;;;5.00;3.00;;;;;10.26;83.26;102119.16;5057827;28;45411;-79
2023/05/24 04:07:04;;;;;;;;;5.33;4.00;;;;;10.44;83.64;102146.00;5056053;28;45570;-80
2023/05/24 04:09:49;;;;;;;;;9.00;4.00;;;;;10.61;84.88;102179.97;5054125;28;46395;-79
2023/05/24 04:12:16;;;;;;;;;7.00;5.00;;;;;10.65;84.94;102171.03;5057163;28;45445;-79
2023/05/24 04:14:41;;;;;;;;;9.00;3.00;;;;;10.38;83.06;102124.13;5059324;28;45437;-78
2023/05/24 04:17:17;;;;;;;;;4.00;3.67;;;;;10.85;82.41;102210.22;5054505;28;45400;-79
2023/05/24 04:19:53;;;;;;;;;6.33;4.00;;;;;10.28;82.13;102125.25;5049518;28;45469;-78
2023/05/24 04:22:18;;;;;;;;;5.00;4.33;;;;;10.44;82.23;102140.72;5056517;28;46269;-78
2023/05/24 04:24:45;;;;;;;;;5.67;5.00;;;;;10.47;82.51;102162.72;5058285;28;45600;-78
2023/05/24 04:27:13;;;;;;;;;5.67;3.33;;;;;10.79;82.28;102229.78;5056437;28;45407;-78
2023/05/24 04:29:40;;;;;;;;;2.00;2.00;;;;;10.24;82.83;102123.63;5056769;28;46415;-78
2023/05/24 04:32:09;;;;;;;;;5.00;3.67;;;;;10.26;82.81;102151.75;5057400;28;45437;-78
2023/05/24 04:37:48;;;;;;;;;10.67;4.00;;;;;10.40;83.05;102162.84;5049866;28;45548;-79
2023/05/24 04:40:15;;;;;;;;;10.00;4.67;;;;;10.52;82.79;102187.25;5053842;28;45490;-79
2023/05/24 04:42:44;;;;;;;;;7.67;4.00;;;;;10.38;82.23;102179.66;5059901;28;45333;-79
2023/05/24 04:45:10;;;;;;;;;6.00;4.00;;;;;10.72;83.82;102219.38;5059678;28;45425;-80
2023/05/24 04:47:47;;;;;;;;;4.00;4.00;;;;;10.58;82.86;102205.63;5059235;28;45617;-79
2023/05/24 04:50:13;;;;;;;;;9.33;6.67;;;;;10.47;83.83;102186.53;5051893;28;46950;-79
2023/05/24 04:52:40;;;;;;;;;8.00;6.33;;;;;10.42;82.83;102197.19;5067421;28;45585;-78
2023/05/24 04:55:15;;;;;;;;;4.00;4.00;;;;;10.28;82.30;102167.56;5057417;28;45343;-80
2023/05/24 04:57:41;;;;;;;;;6.33;4.00;;;;;10.37;81.42;102184.06;5053725;28;45500;-78
2023/05/24 05:00:10;;;;;;;;;6.67;6.33;;;;;10.60;83.92;102214.41;5050227;28;47433;-75
2023/05/24 05:02:48;;;;;;;;;8.67;3.33;;;;;10.92;82.61;102278.88;5056980;28;45407;-74
2023/05/24 05:05:18;;;;;;;;;11.67;3.00;;;;;10.93;81.82;102261.19;5055861;28;45506;-74
2023/05/24 05:07:56;;;;;;;;;7.00;6.00;;;;;11.02;83.45;102268.91;5074511;28;45360;-74
2023/05/24 05:10:22;;;;;;;;;5.67;4.00;;;;;10.51;81.73;102177.56;5051566;28;46613;-74
2023/05/24 05:12:48;;;;;;;;;17.67;6.33;;;;;10.59;80.66;102165.91;5060684;28;45469;-75
2023/05/24 05:15:21;;;;;;;;;2.00;2.00;;;;;10.89;81.96;102226.00;5059553;28;45467;-75
2023/05/24 05:17:46;;;;;;;;;8.00;8.00;;;;;10.87;82.74;102201.34;5055088;28;45438;-74
2023/05/24 05:20:12;;;;;;;;;9.67;5.00;;;;;10.78;81.31;102185.69;5055781;28;46297;-74
2023/05/24 05:22:37;;;;;;;;;9.67;6.00;;;;;11.12;80.98;102224.53;5056621;28;45502;-75
2023/05/24 05:25:21;;;;;;;;;8.33;4.00;;;;;11.08;80.57;102188.44;5058548;28;45990;-81
2023/05/24 05:27:56;;;;;;;;;6.00;4.00;;;;;11.11;78.96;102191.00;5055775;28;45371;-74
2023/05/24 05:30:36;;;;;;;;;4.33;4.33;;;;;11.40;77.97;102233.44;5053040;28;45768;-75
2023/05/24 05:33:05;;;;;;;;;4.33;2.67;;;;;11.44;77.36;102221.88;5052702;28;45237;-77
2023/05/24 05:35:34;;;;;;;;;4.67;3.00;;;;;11.74;77.57;102267.84;5053283;28;45526;-76
2023/05/24 05:38:00;;;;;;;;;9.33;6.00;;;;;11.80;78.46;102280.94;5053164;28;45603;-76
2023/05/24 05:40:31;;;;;;;;;2.67;2.00;;;;;11.43;77.01;102210.38;5054558;28;45233;-76
2023/05/24 05:42:57;;;;;;;;;5.00;5.00;;;;;11.62;76.57;102218.66;5053932;28;45506;-76
2023/05/24 05:45:23;;;;;;;;;2.33;2.33;;;;;11.82;75.36;102247.28;5057474;28;45444;-76
2023/05/24 05:47:54;;;;;;;;;4.33;3.00;;;;;11.75;75.07;102216.56;5056192;28;45532;-76
2023/05/24 05:50:22;;;;;;;;;5.00;4.00;;;;;11.70;74.23;102182.25;5054662;28;47799;-76
2023/05/24 05:52:55;;;;;;;;;7.00;5.33;;;;;12.09;74.35;102269.47;5056634;28;45357;-76
2023/05/24 05:55:36;;;;;;;;;3.00;3.00;;;;;11.74;74.61;102170.66;5056275;28;45446;-76
2023/05/24 05:58:09;;;;;;;;;8.33;5.00;;;;;11.89;75.50;102186.09;5056809;28;45426;-76
2023/05/24 06:00:38;;;;;;;;;3.00;3.00;;;;;12.02;75.26;102200.72;5072384;28;45840;-76
2023/05/24 06:03:04;;;;;;;;;4.67;2.00;;;;;12.33;73.03;102234.25;5053045;28;45368;-76
2023/05/24 06:05:35;;;;;;;;;8.00;4.00;;;;;12.24;72.91;102214.16;5063146;28;45429;-77
2023/05/24 06:08:00;;;;;;;;;4.00;3.00;;;;;12.41;74.19;102251.66;5062342;28;45411;-74
2023/05/24 06:10:26;;;;;;;;;6.00;4.00;;;;;12.10;73.98;102211.09;5059176;28;45386;-76
2023/05/24 06:12:55;;;;;;;;;10.00;4.33;;;;;12.12;73.01;102181.84;5057296;28;45404;-76
2023/05/24 06:15:21;;;;;;;;;3.67;3.67;;;;;12.30;72.67;102199.84;5080136;28;45462;-75
2023/05/24 06:17:48;;;;;;;;;4.67;4.00;;;;;12.63;73.20;102243.84;5062564;28;45523;-75
2023/05/24 06:20:15;;;;;;;;;8.67;5.33;;;;;12.26;74.06;102180.50;5066324;28;45681;-75
2023/05/24 06:22:41;;;;;;;;;4.00;4.00;;;;;12.75;72.22;102264.72;5059389;28;45545;-75
2023/05/24 06:25:23;;;;;;;;;6.33;6.33;;;;;12.91;72.20;102276.56;5059283;28;45312;-75
2023/05/24 06:27:55;;;;;;;;;5.00;4.00;;;;;12.61;73.04;102205.88;5056737;28;45511;-75
2023/05/24 06:30:20;;;;;;;;;10.67;5.00;;;;;12.70;70.63;102234.78;5053513;28;47664;-75
2023/05/24 06:32:46;;;;;;;;;4.00;4.00;;;;;12.81;70.96;102242.38;5061354;28;45410;-75
2023/05/24 06:35:11;;;;;;;;;4.00;4.00;;;;;12.85;72.54;102233.41;5050376;28;45333;-75
2023/05/24 06:37:37;;;;;;;;;6.00;2.33;;;;;12.85;70.97;102222.78;5056742;28;45527;-75
2023/05/24 06:40:05;;;;;;;;;5.33;3.33;;;;;13.08;70.89;102246.78;5070447;28;45529;-75
2023/05/24 06:42:30;;;;;;;;;6.33;2.67;;;;;13.10;69.71;102238.78;5059932;28;45518;-76
2023/05/24 06:45:07;;;;;;;;;6.00;3.67;;;;;13.39;70.59;102297.06;5060732;28;45532;-76
2023/05/24 06:47:35;;;;;;;;;6.00;3.67;;;;;12.93;68.93;102188.84;5059571;28;45313;-76
2023/05/24 06:50:08;;;;;;;;;10.67;5.67;;;;;13.21;69.02;102223.34;5046435;28;45628;-76
2023/05/24 06:52:34;;;;;;;;;6.67;5.00;;;;;13.21;69.84;102218.91;5074524;28;45375;-76
2023/05/24 06:55:00;;;;;;;;;7.33;3.33;;;;;13.47;69.16;102245.41;5046469;28;45453;-76
2023/05/24 06:57:25;;;;;;;;;5.33;4.67;;;;;13.58;68.60;102229.03;5059778;28;45533;-76
2023/05/24 07:00:04;;;;;;;;;3.00;3.00;;;;;13.35;68.38;102200.66;5051431;28;45481;-75
2023/05/24 07:02:29;;;;;;;;;6.00;5.67;;;;;13.50;67.12;102208.06;5074089;28;45375;-75
2023/05/24 07:05:05;;;;;;;;;3.67;3.67;;;;;13.89;67.93;102263.34;5049479;28;45315;-75
2023/05/24 07:07:31;;;;;;;;;4.50;4.00;;;;;13.80;67.31;102255.72;5060209;28;45437;-76
2023/05/24 07:09:59;;;;;;;;;5.33;5.00;;;;;13.82;67.98;102246.75;5047571;28;45422;-76
2023/05/24 07:12:25;;;;;;;;;6.00;5.00;;;;;13.89;66.73;102253.56;5058059;28;45559;-76
2023/05/24 07:14:50;;;;;;;;;5.67;4.67;;;;;14.03;66.07;102243.28;5060690;28;45482;-76
2023/05/24 07:17:16;;;;;;;;;5.00;4.00;;;;;14.28;64.83;102285.75;5060179;28;46070;-75
2023/05/24 07:19:50;;;;;;;;;6.00;6.00;;;;;14.19;66.39;102251.53;5057436;28;45960;-76
2023/05/24 07:22:16;;;;;;;;;4.67;4.00;;;;;14.56;64.81;102304.22;5058191;28;45443;-76
2023/05/24 07:24:44;;;;;;;;;6.00;4.00;;;;;14.32;66.11;102231.50;5058233;28;45423;-76
2023/05/24 07:27:11;;;;;;;;;5.00;5.00;;;;;14.41;65.92;102220.50;5060702;28;45398;-75
2023/05/24 07:29:37;;;;;;;;;6.33;4.00;;;;;14.40;63.55;102200.13;5056973;28;46337;-76
2023/05/24 07:32:02;;;;;;;;;4.67;4.00;;;;;14.68;64.93;102226.50;5056762;28;45276;-76
2023/05/24 07:34:29;;;;;;;;;1.33;1.33;;;;;14.90;63.00;102251.31;5055233;28;45417;-76
2023/05/24 07:36:56;;;;;;;;;3.33;2.00;;;;;15.24;63.25;102281.84;5061039;28;45870;-77
2023/05/24 07:39:22;;;;;;;;;5.33;5.00;;;;;15.25;62.71;102251.63;5058776;28;45811;-76
2023/05/24 07:41:49;;;;;;;;;3.67;3.67;;;;;15.01;62.70;102202.91;5058694;28;45398;-76
2023/05/24 07:44:15;;;;;;;;;6.67;3.33;;;;;15.66;61.81;102290.69;5059509;28;45496;-76
2023/05/24 07:46:43;;;;;;;;;3.00;3.00;;;;;15.36;60.41;102238.66;5046744;28;45295;-77
2023/05/24 07:49:09;;;;;;;;;4.00;4.00;;;;;15.86;60.87;102314.66;5058889;28;45895;-77
2023/05/24 07:51:35;;;;;;;;;3.67;3.67;;;;;15.47;59.64;102215.06;5052346;28;45613;-77
2023/05/24 07:54:01;;;;;;;;;7.00;3.00;;;;;15.68;58.30;102251.44;5040888;28;45375;-76
2023/05/24 07:56:29;;;;;;;;;4.00;4.00;;;;;15.65;57.81;102259.59;5059719;28;45420;-76
2023/05/24 07:59:02;;;;;;;;;4.33;4.33;;;;;15.77;58.33;102276.88;5050747;28;45542;-76
2023/05/24 08:01:33;;;;;;;;;3.33;3.33;;;;;15.44;55.96;102205.41;5058424;28;45446;-75
2023/05/24 08:04:00;;;;;;;;;3.67;2.33;;;;;15.76;58.62;102275.13;5059669;28;45311;-76
2023/05/24 08:06:26;;;;;;;;;5.67;3.00;;;;;16.17;58.60;102293.63;5059371;28;45375;-79
2023/05/24 08:08:57;;;;;;;;;4.33;3.33;;;;;15.98;57.32;102258.06;5044378;28;45512;-77
2023/05/24 08:11:26;;;;;;;;;3.67;2.67;;;;;15.91;57.69;102226.38;5057791;28;45238;-77
2023/05/24 08:13:54;;;;;;;;;8.33;3.67;;;;;15.99;56.89;102235.78;5054059;28;45454;-77
2023/05/24 08:16:20;;;;;;;;;4.33;3.00;;;;;16.09;56.18;102225.53;5051749;28;45422;-77
2023/05/24 08:18:45;;;;;;;;;4.00;3.00;;;;;16.33;54.43;102244.88;5039688;28;47423;-77
2023/05/24 08:21:10;;;;;;;;;7.33;4.33;;;;;16.21;56.42;102224.94;5049743;28;45294;-77
2023/05/24 08:23:36;;;;;;;;;6.33;4.00;;;;;16.54;55.06;102254.50;5046036;28;45353;-76
2023/05/24 08:26:01;;;;;;;;;3.67;2.00;;;;;16.68;53.87;102273.41;5047913;28;45310;-77
2023/05/24 08:28:30;;;;;;;;;6.00;4.00;;;;;16.59;54.96;102253.34;5058113;28;45493;-78
2023/05/24 08:30:57;;;;;;;;;4.33;4.00;;;;;16.86;54.03;102285.84;5070169;27;45416;-78
2023/05/24 08:33:23;;;;;;;;;3.00;3.00;;;;;17.05;52.88;102291.13;5057450;28;45305;-77
2023/05/24 08:35:52;;;;;;;;;5.00;3.00;;;;;16.86;53.67;102244.91;5059132;28;45301;-78
2023/05/24 08:38:18;;;;;;;;;4.00;4.00;;;;;17.31;52.16;102297.88;5057844;28;46099;-79
2023/05/24 08:40:47;;;;;;;;;4.00;2.00;;;;;17.44;52.08;102306.97;5053501;28;45679;-77
2023/05/24 08:43:14;;;;;;;;;6.00;4.00;;;;;17.07;52.01;102239.34;5068176;28;45344;-76
2023/05/24 08:45:49;;;;;;;;;5.00;4.00;;;;;17.37;52.04;102262.78;5051528;28;45500;-77
2023/05/24 08:48:18;;;;;;;;;5.00;3.00;;;;;17.66;50.04;102294.25;5057332;28;46437;-77
2023/05/24 08:50:47;;;;;;;;;4.67;2.00;;;;;17.44;49.84;102245.47;5042789;28;45461;-78
2023/05/24 08:53:14;;;;;;;;;3.33;2.33;;;;;17.31;50.31;102201.59;5058350;28;45433;-78
2023/05/24 08:55:42;;;;;;;;;3.67;3.00;;;;;17.62;51.02;102226.66;5058804;28;45359;-78
2023/05/24 08:58:08;;;;;;;;;4.00;2.00;;;;;17.69;50.13;102225.38;5072165;28;46041;-77
2023/05/24 09:00:34;;;;;;;;;2.00;2.00;;;;;17.77;48.82;102216.91;5050278;28;45309;-77
2023/05/24 09:03:04;;;;;;;;;7.67;3.33;;;;;17.74;50.04;102203.69;5052280;28;45328;-76
2023/05/24 09:05:32;;;;;;;;;5.67;2.33;;;;;18.07;47.78;102236.63;5052008;28;45395;-76
2023/05/24 09:08:00;;;;;;;;;6.00;2.00;;;;;18.07;49.10;102227.72;5046582;28;47170;-77
2023/05/24 09:10:32;;;;;;;;;4.00;2.67;;;;;18.22;44.74;102233.09;5047195;28;45485;-76
2023/05/24 09:13:01;;;;;;;;;2.00;2.00;;;;;18.17;46.16;102195.00;5055806;28;45429;-77
2023/05/24 09:15:28;;;;;;;;;1.67;1.67;;;;;18.80;46.87;102288.75;5056169;28;45563;-78
2023/05/24 09:17:53;;;;;;;;;1.00;1.00;;;;;18.36;45.13;102194.81;5054102;28;46300;-77
2023/05/24 09:20:20;;;;;;;;;2.67;1.33;;;;;18.59;46.36;102199.75;5054173;28;45441;-77
2023/05/24 09:22:52;;;;;;;;;3.00;1.00;;;;;18.67;44.87;102210.03;5056166;28;45410;-76
2023/05/24 09:25:22;;;;;;;;;1.67;1.67;;;;;18.96;44.54;102243.16;5057233;28;45612;-77
2023/05/24 09:27:51;;;;;;;;;2.00;2.00;;;;;18.87;42.82;102208.84;5036588;28;48388;-77
2023/05/24 09:30:26;;;;;;;;;2.00;1.00;;;;;18.76;44.51;102203.25;5052883;28;45410;-77
2023/05/24 09:33:12;;;;;;;;;3.33;1.00;;;;;19.31;44.34;102262.47;5048134;28;45418;-77
2023/05/24 09:35:43;;;;;;;;;2.00;0.67;;;;;19.27;42.70;102246.56;5050281;28;45740;-75
2023/05/24 09:38:24;;;;;;;;;1.67;1.67;;;;;19.27;41.91;102250.22;5051359;28;48104;-76
2023/05/24 09:41:17;;;;;;;;;;;;;;;;;;;;;
2023/05/24 09:46:46;;;;;;;;;4.33;2.00;;;;;19.28;41.33;102177.69;5047115;28;45519;-77
2023/05/24 09:49:21;;;;;;;;;3.00;1.67;;;;;19.98;41.35;102264.59;5057685;28;45772;-77
2023/05/24 09:51:52;;;;;;;;;0.67;0.67;;;;;19.80;39.25;102220.97;5059867;28;45466;-75
2023/05/24 09:54:27;;;;;;;;;4.00;1.00;;;;;19.59;43.06;102161.44;5040859;28;45315;-76
2023/05/24 09:57:21;;;;;;;;;0.67;0.67;;;;;19.86;41.40;102185.66;5074444;28;45742;-77
2023/05/24 09:59:56;;;;;;;;;3.00;1.33;;;;;19.98;42.93;102149.97;5060907;28;45398;-77
2023/05/24 10:02:32;;;;;;;;;;;;;;;;;;;;;
2023/05/24 10:05:14;;;;;;;;;4.33;2.67;;;;;20.58;41.08;102254.44;5056158;28;68600;-75
2023/05/24 10:07:55;;;;;;;;;2.67;1.67;;;;;20.13;42.88;102159.72;5061831;28;45399;-77
2023/05/24 10:10:29;;;;;;;;;1.33;1.00;;;;;20.54;41.12;102202.69;5051812;28;45583;-75
2023/05/24 10:13:06;;;;;;;;;1.00;0.67;;;;;20.48;42.58;102178.94;5071913;27;45596;-76
2023/05/24 10:15:35;;;;;;;;;1.00;1.00;;;;;20.88;40.03;102247.00;5054204;28;45463;-76
2023/05/24 10:18:12;;;;;;;;;2.00;2.00;;;;;20.40;39.95;102181.25;5058818;28;45293;-77
2023/05/24 10:21:01;;;;;;;;;3.33;2.33;;;;;20.27;39.72;102150.78;5061668;28;45469;-79
2023/05/24 10:23:37;;;;;;;;;1.00;1.00;;;;;20.56;40.33;102178.38;5065356;28;45444;-79
2023/05/24 10:26:47;;;;;;;;;;;;;;;;;;;;;
2023/05/24 10:29:55;;;;;;;;;3.33;1.67;;;;;20.84;38.59;102175.59;5055897;28;72898;-78
2023/05/24 10:32:23;;;;;;;;;2.00;2.00;;;;;20.88;37.63;102160.94;5044013;28;47717;-78
2023/05/24 10:35:07;;;;;;;;;0.67;0.67;;;;;21.06;38.94;102154.28;5059233;28;45530;-78
2023/05/24 10:37:37;;;;;;;;;2.67;2.67;;;;;21.25;37.29;102170.91;5057176;28;45427;-79
2023/05/24 10:40:24;;;;;;;;;2.00;2.00;;;;;21.13;38.58;102141.31;5046675;28;45537;-78
2023/05/24 10:43:01;;;;;;;;;;;;;;;;;;;;;
2023/05/24 10:45:35;;;;;;;;;1.67;1.67;;;;;21.12;37.48;102164.66;5058402;28;71286;-78
2023/05/24 10:48:27;;;;;;;;;0.67;0.67;;;;;21.18;37.45;102164.22;5059110;28;45408;-79
2023/05/24 10:50:56;;;;;;;;;3.00;1.33;;;;;21.55;36.57;102213.66;5042605;28;45371;-79
2023/05/24 10:53:35;;;;;;;;;2.00;2.00;;;;;21.34;36.28;102166.69;5055303;28;47290;-78
2023/05/24 10:56:13;;;;;;;;;0.00;0.00;;;;;21.30;35.13;102182.19;5057249;28;45487;-80
2023/05/24 10:59:20;;;;;;;;;0.67;0.67;;;;;21.77;37.11;102231.81;5054914;28;45297;-81
2023/05/24 11:02:00;;;;;;;;;1.00;1.00;;;;;21.62;36.71;102195.22;5042798;28;45471;-79
2023/05/24 11:04:30;;;;;;;;;2.67;1.00;;;;;21.59;36.97;102169.38;5058372;28;46139;-86
2023/05/24 11:07:10;;;;;;;;;3.00;2.00;;;;;21.74;35.55;102165.56;5059065;28;45651;-80
2023/05/24 11:10:13;;;;;;;;;1.00;1.00;;;;;22.14;35.43;102236.31;5055130;28;45545;-79
2023/05/24 11:15:52;;;;;;;;;1.00;1.00;;;;;22.09;34.23;102195.38;5051678;28;45534;-80
2023/05/24 11:18:44;;;;;;;;;2.00;2.00;;;;;21.77;35.25;102135.72;5046266;28;45559;-79
2023/05/24 11:21:19;;;;;;;;;1.00;1.00;;;;;22.35;33.74;102243.81;5051036;28;45608;-83
2023/05/24 11:24:09;;;;;;;;;3.00;2.00;;;;;22.34;36.22;102229.47;5052358;28;45329;-78
2023/05/24 11:27:01;;;;;;;;;;;;;;;;;;;;;
2023/05/24 11:29:31;;;;;;;;;1.00;1.00;;;;;22.20;34.61;102181.09;5059140;28;71793;-81
2023/05/24 11:32:06;;;;;;;;;2.67;1.67;;;;;22.62;36.44;102231.81;5060273;28;45611;-76
2023/05/24 11:34:38;;;;;;;;;2.00;2.00;;;;;22.15;36.30;102151.78;5057074;28;45807;-77
2023/05/24 11:37:05;;;;;;;;;2.00;2.00;;;;;22.52;36.11;102179.56;5054940;28;47060;-78
2023/05/24 11:39:38;;;;;;;;;2.00;2.00;;;;;22.38;35.29;102142.00;5056958;28;46387;-77
2023/05/24 11:42:05;;;;;;;;;2.00;2.00;;;;;22.77;35.93;102208.28;5057142;28;45406;-78
2023/05/24 11:44:31;;;;;;;;;2.00;1.00;;;;;22.78;35.39;102201.88;5059546;28;45538;-78
2023/05/24 11:47:18;;;;;;;;;3.00;3.00;;;;;22.64;36.32;102143.56;5058008;28;47214;-78
2023/05/24 11:49:51;;;;;;;;;5.00;2.00;;;;;22.86;36.61;102177.88;5057552;28;45543;-78
2023/05/24 11:52:17;;;;;;;;;2.67;2.00;;;;;22.89;36.28;102179.47;5059075;28;45332;-78
2023/05/24 11:54:43;;;;;;;;;1.67;1.67;;;;;23.06;37.32;102174.50;5056546;28;45499;-78
2023/05/24 11:57:29;;;;;;;;;2.00;2.00;;;;;23.04;36.78;102157.56;5056744;28;45225;-77
2023/05/24 11:59:57;;;;;;;;;4.00;2.00;;;;;22.90;36.02;102129.94;5058579;28;45425;-77
2023/05/24 12:02:32;;;;;;;;;2.00;2.00;;;;;23.08;36.88;102153.66;5046046;28;45355;-78
2023/05/24 12:05:13;;;;;;;;;1.00;1.00;;;;;23.46;37.98;102193.84;5056860;28;45463;-77
2023/05/24 12:07:39;;;;;;;;;1.00;1.00;;;;;23.57;36.16;102185.75;5072656;28;46856;-77
2023/05/24 12:10:08;;;;;;;;;1.00;1.00;;;;;23.38;36.40;102125.22;5053155;28;45444;-77
2023/05/24 12:12:41;;;;;;;;;4.00;2.00;;;;;23.64;36.20;102148.31;5054352;28;45439;-78
2023/05/24 12:15:13;;;;;;;;;1.00;1.00;;;;;23.56;36.61;102116.50;5057561;28;45442;-78
2023/05/24 12:17:48;;;;;;;;;2.00;2.00;;;;;23.70;36.47;102131.59;5057706;28;47722;-78
2023/05/24 12:20:20;;;;;;;;;2.67;2.00;;;;;23.83;35.96;102106.16;5057164;28;45322;-78
2023/05/24 12:22:51;;;;;;;;;1.33;1.33;;;;;24.34;34.03;102195.63;5056831;28;45546;-78
2023/05/24 12:25:21;;;;;;;;;2.00;1.00;;;;;24.46;37.10;102174.84;5043316;28;45384;-78